sensor_id;sensor_type;location;lat;lon;timestamp;temperature;humidity
41142;SHT31;63666;52.284;20.890;2023-04-07T00:01:44;20.17;38.43
41142;SHT31;63666;52.284;20.890;2023-04-07T00:04:23;20.15;38.46
41142;SHT31;63666;52.284;20.890;2023-04-07T00:06:58;20.14;38.46
41142;SHT31;63666;52.284;20.890;2023-04-07T00:09:34;20.15;38.40
41142;SHT31;63666;52.284;20.890;2023-04-07T00:12:10;20.15;38.40
41142;SHT31;63666;52.284;20.890;2023-04-07T00:14:44;20.13;38.41
41142;SHT31;63666;52.284;20.890;2023-04-07T00:17:20;20.14;38.38
41142;SHT31;63666;52.284;20.890;2023-04-07T00:19:56;20.15;38.31
41142;SHT31;63666;52.284;20.890;2023-04-07T00:22:32;20.12;38.36
41142;SHT31;63666;52.284;20.890;2023-04-07T00:25:07;20.14;38.33
41142;SHT31;63666;52.284;20.890;2023-04-07T00:27:41;20.14;38.32
41142;SHT31;63666;52.284;20.890;2023-04-07T00:30:16;20.13;38.33
41142;SHT31;63666;52.284;20.890;2023-04-07T00:32:50;20.12;38.33
41142;SHT31;63666;52.284;20.890;2023-04-07T00:35:23;20.12;38.31
41142;SHT31;63666;52.284;20.890;2023-04-07T00:37:57;20.10;38.33
41142;SHT31;63666;52.284;20.890;2023-04-07T00:40:31;20.08;38.36
41142;SHT31;63666;52.284;20.890;2023-04-07T00:43:06;20.10;38.33
41142;SHT31;63666;52.284;20.890;2023-04-07T00:45:40;20.10;38.30
41142;SHT31;63666;52.284;20.890;2023-04-07T00:48:15;20.12;38.29
41142;SHT31;63666;52.284;20.890;2023-04-07T00:50:50;20.10;38.28
41142;SHT31;63666;52.284;20.890;2023-04-07T00:53:24;20.09;38.30
41142;SHT31;63666;52.284;20.890;2023-04-07T00:55:59;20.08;38.28
41142;SHT31;63666;52.284;20.890;2023-04-07T01:01:07;20.06;38.30
41142;SHT31;63666;52.284;20.890;2023-04-07T01:03:48;20.05;38.29
41142;SHT31;63666;52.284;20.890;2023-04-07T01:06:29;20.05;38.30
41142;SHT31;63666;52.284;20.890;2023-04-07T01:09:09;20.07;38.28
41142;SHT31;63666;52.284;20.890;2023-04-07T01:11:50;20.07;38.25
41142;SHT31;63666;52.284;20.890;2023-04-07T01:14:33;20.05;38.29
41142;SHT31;63666;52.284;20.890;2023-04-07T01:17:16;20.03;38.28
41142;SHT31;63666;52.284;20.890;2023-04-07T01:19:54;20.04;38.26
41142;SHT31;63666;52.284;20.890;2023-04-07T01:22:33;20.03;38.25
41142;SHT31;63666;52.284;20.890;2023-04-07T01:25:24;20.04;38.24
41142;SHT31;63666;52.284;20.890;2023-04-07T01:28:14;20.04;38.22
41142;SHT31;63666;52.284;20.890;2023-04-07T01:31:12;20.03;38.20
41142;SHT31;63666;52.284;20.890;2023-04-07T01:33:47;20.02;38.24
41142;SHT31;63666;52.284;20.890;2023-04-07T01:36:24;20.01;38.20
41142;SHT31;63666;52.284;20.890;2023-04-07T01:39:02;20.02;38.22
41142;SHT31;63666;52.284;20.890;2023-04-07T01:41:37;20.00;38.22
41142;SHT31;63666;52.284;20.890;2023-04-07T01:44:12;20.01;38.19
41142;SHT31;63666;52.284;20.890;2023-04-07T01:46:54;20.00;38.20
41142;SHT31;63666;52.284;20.890;2023-04-07T01:49:30;20.00;38.21
41142;SHT31;63666;52.284;20.890;2023-04-07T01:52:06;19.99;38.19
41142;SHT31;63666;52.284;20.890;2023-04-07T01:54:40;19.98;38.19
41142;SHT31;63666;52.284;20.890;2023-04-07T01:57:18;19.97;38.20
41142;SHT31;63666;52.284;20.890;2023-04-07T01:59:54;19.97;38.21
41142;SHT31;63666;52.284;20.890;2023-04-07T02:02:29;19.97;38.20
41142;SHT31;63666;52.284;20.890;2023-04-07T02:05:07;19.95;38.22
41142;SHT31;63666;52.284;20.890;2023-04-07T02:07:48;19.95;38.22
41142;SHT31;63666;52.284;20.890;2023-04-07T02:10:28;19.95;38.20
41142;SHT31;63666;52.284;20.890;2023-04-07T02:13:05;19.97;38.18
41142;SHT31;63666;52.284;20.890;2023-04-07T02:15:42;19.96;38.19
41142;SHT31;63666;52.284;20.890;2023-04-07T02:18:17;19.95;38.20
41142;SHT31;63666;52.284;20.890;2023-04-07T02:20:53;19.95;38.20
41142;SHT31;63666;52.284;20.890;2023-04-07T02:23:28;19.95;38.18
41142;SHT31;63666;52.284;20.890;2023-04-07T02:26:02;19.93;38.20
41142;SHT31;63666;52.284;20.890;2023-04-07T02:28:38;19.91;38.24
41142;SHT31;63666;52.284;20.890;2023-04-07T02:31:12;19.92;38.25
41142;SHT31;63666;52.284;20.890;2023-04-07T02:33:48;19.93;38.20
41142;SHT31;63666;52.284;20.890;2023-04-07T02:36:22;19.91;38.21
41142;SHT31;63666;52.284;20.890;2023-04-07T02:38:57;19.90;38.23
41142;SHT31;63666;52.284;20.890;2023-04-07T02:41:32;19.91;38.21
41142;SHT31;63666;52.284;20.890;2023-04-07T02:44:07;19.91;38.20
41142;SHT31;63666;52.284;20.890;2023-04-07T02:46:41;19.90;38.21
41142;SHT31;63666;52.284;20.890;2023-04-07T02:49:16;19.91;38.20
41142;SHT31;63666;52.284;20.890;2023-04-07T02:51:50;19.91;38.20
41142;SHT31;63666;52.284;20.890;2023-04-07T02:54:24;19.90;38.21
41142;SHT31;63666;52.284;20.890;2023-04-07T02:56:58;19.91;38.20
41142;SHT31;63666;52.284;20.890;2023-04-07T02:59:32;19.89;38.21
41142;SHT31;63666;52.284;20.890;2023-04-07T03:02:07;19.88;38.24
41142;SHT31;63666;52.284;20.890;2023-04-07T03:04:41;19.86;38.24
41142;SHT31;63666;52.284;20.890;2023-04-07T03:07:15;19.87;38.43
41142;SHT31;63666;52.284;20.890;2023-04-07T03:09:49;19.87;38.61
41142;SHT31;63666;52.284;20.890;2023-04-07T03:12:23;19.88;38.93
41142;SHT31;63666;52.284;20.890;2023-04-07T03:15:00;19.88;39.07
41142;SHT31;63666;52.284;20.890;2023-04-07T03:17:37;19.88;39.21
41142;SHT31;63666;52.284;20.890;2023-04-07T03:20:12;19.88;39.29
41142;SHT31;63666;52.284;20.890;2023-04-07T03:22:46;19.89;39.33
41142;SHT31;63666;52.284;20.890;2023-04-07T03:25:20;19.88;39.40
41142;SHT31;63666;52.284;20.890;2023-04-07T03:27:56;19.88;39.44
41142;SHT31;63666;52.284;20.890;2023-04-07T03:30:29;19.85;39.65
41142;SHT31;63666;52.284;20.890;2023-04-07T03:33:05;19.86;39.62
41142;SHT31;63666;52.284;20.890;2023-04-07T03:35:39;19.86;39.62
41142;SHT31;63666;52.284;20.890;2023-04-07T03:38:14;19.87;39.62
41142;SHT31;63666;52.284;20.890;2023-04-07T03:40:49;19.86;39.64
41142;SHT31;63666;52.284;20.890;2023-04-07T03:43:25;19.87;39.66
41142;SHT31;63666;52.284;20.890;2023-04-07T03:45:59;19.86;39.60
41142;SHT31;63666;52.284;20.890;2023-04-07T03:48:34;19.87;39.70
41142;SHT31;63666;52.284;20.890;2023-04-07T03:51:08;19.87;39.79
41142;SHT31;63666;52.284;20.890;2023-04-07T03:53:41;19.87;39.89
41142;SHT31;63666;52.284;20.890;2023-04-07T03:56:16;19.87;39.86
41142;SHT31;63666;52.284;20.890;2023-04-07T03:58:50;19.86;39.86
41142;SHT31;63666;52.284;20.890;2023-04-07T04:01:26;19.88;39.87
41142;SHT31;63666;52.284;20.890;2023-04-07T04:04:01;19.91;39.85
41142;SHT31;63666;52.284;20.890;2023-04-07T04:06:36;19.94;39.82
41142;SHT31;63666;52.284;20.890;2023-04-07T04:09:10;20.00;39.74
41142;SHT31;63666;52.284;20.890;2023-04-07T04:11:45;20.07;39.60
41142;SHT31;63666;52.284;20.890;2023-04-07T04:14:21;20.15;39.48
41142;SHT31;63666;52.284;20.890;2023-04-07T04:16:57;20.18;39.44
41142;SHT31;63666;52.284;20.890;2023-04-07T04:19:34;20.22;39.39
41142;SHT31;63666;52.284;20.890;2023-04-07T04:22:07;20.25;39.37
41142;SHT31;63666;52.284;20.890;2023-04-07T04:24:44;20.30;39.30
41142;SHT31;63666;52.284;20.890;2023-04-07T04:27:19;20.34;39.28
41142;SHT31;63666;52.284;20.890;2023-04-07T04:29:54;20.37;39.22
41142;SHT31;63666;52.284;20.890;2023-04-07T04:32:28;20.41;39.17
41142;SHT31;63666;52.284;20.890;2023-04-07T04:35:06;20.43;39.11
41142;SHT31;63666;52.284;20.890;2023-04-07T04:37:41;20.46;39.11
41142;SHT31;63666;52.284;20.890;2023-04-07T04:40:17;20.50;39.06
41142;SHT31;63666;52.284;20.890;2023-04-07T04:42:51;20.53;39.05
41142;SHT31;63666;52.284;20.890;2023-04-07T04:45:28;20.55;39.00
41142;SHT31;63666;52.284;20.890;2023-04-07T04:48:03;20.58;39.00
41142;SHT31;63666;52.284;20.890;2023-04-07T04:50:39;20.62;38.93
41142;SHT31;63666;52.284;20.890;2023-04-07T04:53:15;20.63;38.90
41142;SHT31;63666;52.284;20.890;2023-04-07T04:55:49;20.65;38.90
41142;SHT31;63666;52.284;20.890;2023-04-07T04:58:24;20.67;38.89
41142;SHT31;63666;52.284;20.890;2023-04-07T05:01:00;20.68;38.87
41142;SHT31;63666;52.284;20.890;2023-04-07T05:03:34;20.71;38.81
41142;SHT31;63666;52.284;20.890;2023-04-07T05:06:10;20.73;38.80
41142;SHT31;63666;52.284;20.890;2023-04-07T05:08:43;20.76;38.80
41142;SHT31;63666;52.284;20.890;2023-04-07T05:11:19;20.78;38.75
41142;SHT31;63666;52.284;20.890;2023-04-07T05:13:54;20.80;38.73
41142;SHT31;63666;52.284;20.890;2023-04-07T05:16:29;20.82;38.71
41142;SHT31;63666;52.284;20.890;2023-04-07T05:19:03;20.85;38.68
41142;SHT31;63666;52.284;20.890;2023-04-07T05:21:38;20.87;38.65
41142;SHT31;63666;52.284;20.890;2023-04-07T05:24:14;20.88;38.61
41142;SHT31;63666;52.284;20.890;2023-04-07T05:26:51;20.89;38.60
41142;SHT31;63666;52.284;20.890;2023-04-07T05:29:26;20.92;38.58
41142;SHT31;63666;52.284;20.890;2023-04-07T05:32:01;20.93;38.53
41142;SHT31;63666;52.284;20.890;2023-04-07T05:34:37;20.93;38.51
41142;SHT31;63666;52.284;20.890;2023-04-07T05:37:13;20.95;38.50
41142;SHT31;63666;52.284;20.890;2023-04-07T05:39:49;20.97;38.48
41142;SHT31;63666;52.284;20.890;2023-04-07T05:42:23;21.00;38.41
41142;SHT31;63666;52.284;20.890;2023-04-07T05:45:02;21.01;38.39
41142;SHT31;63666;52.284;20.890;2023-04-07T05:47:37;21.02;38.39
41142;SHT31;63666;52.284;20.890;2023-04-07T05:50:16;21.04;38.33
41142;SHT31;63666;52.284;20.890;2023-04-07T05:52:51;21.06;38.31
41142;SHT31;63666;52.284;20.890;2023-04-07T05:55:27;21.08;38.29
41142;SHT31;63666;52.284;20.890;2023-04-07T05:58:01;21.07;38.29
41142;SHT31;63666;52.284;20.890;2023-04-07T06:00:36;21.08;38.25
41142;SHT31;63666;52.284;20.890;2023-04-07T06:03:11;21.09;38.23
41142;SHT31;63666;52.284;20.890;2023-04-07T06:05:49;21.11;38.20
41142;SHT31;63666;52.284;20.890;2023-04-07T06:08:25;21.12;38.22
41142;SHT31;63666;52.284;20.890;2023-04-07T06:11:01;21.13;38.18
41142;SHT31;63666;52.284;20.890;2023-04-07T06:13:35;21.14;38.18
41142;SHT31;63666;52.284;20.890;2023-04-07T06:16:09;21.14;38.14
41142;SHT31;63666;52.284;20.890;2023-04-07T06:18:47;21.15;38.13
41142;SHT31;63666;52.284;20.890;2023-04-07T06:21:21;21.16;38.13
41142;SHT31;63666;52.284;20.890;2023-04-07T06:23:57;21.17;38.10
41142;SHT31;63666;52.284;20.890;2023-04-07T06:26:33;21.19;38.10
41142;SHT31;63666;52.284;20.890;2023-04-07T06:29:08;21.19;38.14
41142;SHT31;63666;52.284;20.890;2023-04-07T06:31:44;21.21;38.17
41142;SHT31;63666;52.284;20.890;2023-04-07T06:34:17;21.22;38.18
41142;SHT31;63666;52.284;20.890;2023-04-07T06:36:51;21.25;38.27
41142;SHT31;63666;52.284;20.890;2023-04-07T06:39:28;21.30;38.62
41142;SHT31;63666;52.284;20.890;2023-04-07T06:42:05;21.36;38.67
41142;SHT31;63666;52.284;20.890;2023-04-07T06:44:39;21.38;38.50
41142;SHT31;63666;52.284;20.890;2023-04-07T06:47:13;21.41;38.38
41142;SHT31;63666;52.284;20.890;2023-04-07T06:49:48;21.44;38.30
41142;SHT31;63666;52.284;20.890;2023-04-07T06:52:23;21.44;38.28
41142;SHT31;63666;52.284;20.890;2023-04-07T06:54:57;21.45;38.23
41142;SHT31;63666;52.284;20.890;2023-04-07T06:57:31;21.49;38.21
41142;SHT31;63666;52.284;20.890;2023-04-07T07:00:06;21.52;38.29
41142;SHT31;63666;52.284;20.890;2023-04-07T07:02:41;21.53;38.25
41142;SHT31;63666;52.284;20.890;2023-04-07T07:05:16;21.57;38.25
41142;SHT31;63666;52.284;20.890;2023-04-07T07:07:50;21.56;38.26
41142;SHT31;63666;52.284;20.890;2023-04-07T07:10:26;21.54;38.32
41142;SHT31;63666;52.284;20.890;2023-04-07T07:13:00;21.52;38.38
41142;SHT31;63666;52.284;20.890;2023-04-07T07:15:33;21.50;38.47
41142;SHT31;63666;52.284;20.890;2023-04-07T07:18:07;21.51;38.47
41142;SHT31;63666;52.284;20.890;2023-04-07T07:20:41;21.51;38.43
41142;SHT31;63666;52.284;20.890;2023-04-07T07:23:16;21.53;38.40
41142;SHT31;63666;52.284;20.890;2023-04-07T07:25:50;21.57;38.31
41142;SHT31;63666;52.284;20.890;2023-04-07T07:28:23;21.57;38.29
41142;SHT31;63666;52.284;20.890;2023-04-07T07:30:57;21.58;38.22
41142;SHT31;63666;52.284;20.890;2023-04-07T07:33:32;21.59;38.22
41142;SHT31;63666;52.284;20.890;2023-04-07T07:36:08;21.60;38.22
41142;SHT31;63666;52.284;20.890;2023-04-07T07:38:42;21.60;38.20
41142;SHT31;63666;52.284;20.890;2023-04-07T07:41:15;21.61;38.17
41142;SHT31;63666;52.284;20.890;2023-04-07T07:43:49;21.59;38.19
41142;SHT31;63666;52.284;20.890;2023-04-07T07:46:22;21.56;38.21
41142;SHT31;63666;52.284;20.890;2023-04-07T07:48:57;21.53;38.25
41142;SHT31;63666;52.284;20.890;2023-04-07T07:51:30;21.51;38.26
41142;SHT31;63666;52.284;20.890;2023-04-07T07:54:04;21.49;38.28
41142;SHT31;63666;52.284;20.890;2023-04-07T07:56:38;21.48;38.29
41142;SHT31;63666;52.284;20.890;2023-04-07T07:59:12;21.46;38.34
41142;SHT31;63666;52.284;20.890;2023-04-07T08:01:46;21.44;38.41
41142;SHT31;63666;52.284;20.890;2023-04-07T08:04:19;21.41;38.50
41142;SHT31;63666;52.284;20.890;2023-04-07T08:06:53;21.44;40.36
41142;SHT31;63666;52.284;20.890;2023-04-07T08:09:26;21.43;41.13
41142;SHT31;63666;52.284;20.890;2023-04-07T08:12:01;21.40;40.53
41142;SHT31;63666;52.284;20.890;2023-04-07T08:14:34;21.39;40.29
41142;SHT31;63666;52.284;20.890;2023-04-07T08:17:08;21.38;40.11
41142;SHT31;63666;52.284;20.890;2023-04-07T08:19:41;21.35;40.13
41142;SHT31;63666;52.284;20.890;2023-04-07T08:22:15;21.35;40.25
41142;SHT31;63666;52.284;20.890;2023-04-07T08:24:49;21.38;40.26
41142;SHT31;63666;52.284;20.890;2023-04-07T08:27:22;21.52;40.63
41142;SHT31;63666;52.284;20.890;2023-04-07T08:29:59;21.66;40.32
41142;SHT31;63666;52.284;20.890;2023-04-07T08:32:36;21.77;40.44
41142;SHT31;63666;52.284;20.890;2023-04-07T08:35:11;21.85;40.45
41142;SHT31;63666;52.284;20.890;2023-04-07T08:37:44;21.90;40.52
41142;SHT31;63666;52.284;20.890;2023-04-07T08:40:18;21.90;40.39
41142;SHT31;63666;52.284;20.890;2023-04-07T08:42:51;21.89;40.26
41142;SHT31;63666;52.284;20.890;2023-04-07T08:45:25;21.92;40.22
41142;SHT31;63666;52.284;20.890;2023-04-07T08:48:01;21.92;40.05
41142;SHT31;63666;52.284;20.890;2023-04-07T08:50:46;22.03;39.80
41142;SHT31;63666;52.284;20.890;2023-04-07T08:53:25;22.09;39.60
41142;SHT31;63666;52.284;20.890;2023-04-07T08:56:08;22.08;39.70
41142;SHT31;63666;52.284;20.890;2023-04-07T08:58:42;22.11;39.62
41142;SHT31;63666;52.284;20.890;2023-04-07T09:01:18;22.16;39.44
41142;SHT31;63666;52.284;20.890;2023-04-07T09:03:54;22.20;39.22
41142;SHT31;63666;52.284;20.890;2023-04-07T09:06:33;22.21;39.00
41142;SHT31;63666;52.284;20.890;2023-04-07T09:09:09;22.20;39.03
41142;SHT31;63666;52.284;20.890;2023-04-07T09:11:44;22.20;39.03
41142;SHT31;63666;52.284;20.890;2023-04-07T09:14:23;22.19;39.10
41142;SHT31;63666;52.284;20.890;2023-04-07T09:16:56;22.21;39.06
41142;SHT31;63666;52.284;20.890;2023-04-07T09:19:30;22.20;39.27
41142;SHT31;63666;52.284;20.890;2023-04-07T09:22:04;22.25;39.23
41142;SHT31;63666;52.284;20.890;2023-04-07T09:24:40;22.26;39.29
41142;SHT31;63666;52.284;20.890;2023-04-07T09:27:14;22.22;39.26
41142;SHT31;63666;52.284;20.890;2023-04-07T09:29:49;22.16;39.53
41142;SHT31;63666;52.284;20.890;2023-04-07T09:32:43;22.11;39.58
41142;SHT31;63666;52.284;20.890;2023-04-07T09:35:19;22.10;39.49
41142;SHT31;63666;52.284;20.890;2023-04-07T09:38:03;22.14;39.31
41142;SHT31;63666;52.284;20.890;2023-04-07T09:40:39;22.12;39.32
41142;SHT31;63666;52.284;20.890;2023-04-07T09:43:16;22.14;39.15
41142;SHT31;63666;52.284;20.890;2023-04-07T09:45:51;22.16;39.05
41142;SHT31;63666;52.284;20.890;2023-04-07T09:48:40;22.16;39.03
41142;SHT31;63666;52.284;20.890;2023-04-07T09:51:18;22.19;38.97
41142;SHT31;63666;52.284;20.890;2023-04-07T09:53:52;22.19;39.05
41142;SHT31;63666;52.284;20.890;2023-04-07T09:56:26;22.17;39.16
41142;SHT31;63666;52.284;20.890;2023-04-07T09:59:01;22.19;39.12
41142;SHT31;63666;52.284;20.890;2023-04-07T10:01:35;22.25;39.06
41142;SHT31;63666;52.284;20.890;2023-04-07T10:04:09;22.29;38.98
41142;SHT31;63666;52.284;20.890;2023-04-07T10:06:45;22.34;39.01
41142;SHT31;63666;52.284;20.890;2023-04-07T10:09:19;22.45;38.93
41142;SHT31;63666;52.284;20.890;2023-04-07T10:11:54;22.55;38.93
41142;SHT31;63666;52.284;20.890;2023-04-07T10:14:29;22.60;38.97
41142;SHT31;63666;52.284;20.890;2023-04-07T10:17:02;22.67;38.97
41142;SHT31;63666;52.284;20.890;2023-04-07T10:19:36;22.68;39.03
41142;SHT31;63666;52.284;20.890;2023-04-07T10:22:10;22.71;38.97
41142;SHT31;63666;52.284;20.890;2023-04-07T10:24:48;22.62;39.05
41142;SHT31;63666;52.284;20.890;2023-04-07T10:27:30;22.56;39.35
41142;SHT31;63666;52.284;20.890;2023-04-07T10:30:19;22.52;39.49
41142;SHT31;63666;52.284;20.890;2023-04-07T10:32:56;22.48;39.61
41142;SHT31;63666;52.284;20.890;2023-04-07T10:35:55;22.51;39.50
41142;SHT31;63666;52.284;20.890;2023-04-07T10:38:36;22.54;39.53
41142;SHT31;63666;52.284;20.890;2023-04-07T10:44:06;22.39;39.64
41142;SHT31;63666;52.284;20.890;2023-04-07T10:47:04;22.38;39.75
41142;SHT31;63666;52.284;20.890;2023-04-07T10:49:39;22.36;39.69
41142;SHT31;63666;52.284;20.890;2023-04-07T10:52:46;22.39;39.98
41142;SHT31;63666;52.284;20.890;2023-04-07T10:55:36;22.45;39.94
41142;SHT31;63666;52.284;20.890;2023-04-07T10:58:14;22.43;39.87
41142;SHT31;63666;52.284;20.890;2023-04-07T11:03:57;22.30;40.17
41142;SHT31;63666;52.284;20.890;2023-04-07T11:06:34;22.25;40.26
41142;SHT31;63666;52.284;20.890;2023-04-07T11:09:19;22.22;40.44
41142;SHT31;63666;52.284;20.890;2023-04-07T11:11:53;22.22;40.40
41142;SHT31;63666;52.284;20.890;2023-04-07T11:14:31;22.23;40.54
41142;SHT31;63666;52.284;20.890;2023-04-07T11:17:09;22.26;40.38
41142;SHT31;63666;52.284;20.890;2023-04-07T11:19:51;22.25;40.55
41142;SHT31;63666;52.284;20.890;2023-04-07T11:22:28;22.25;40.67
41142;SHT31;63666;52.284;20.890;2023-04-07T11:25:04;22.22;40.74
41142;SHT31;63666;52.284;20.890;2023-04-07T11:27:56;22.19;40.64
41142;SHT31;63666;52.284;20.890;2023-04-07T11:30:28;22.22;40.48
41142;SHT31;63666;52.284;20.890;2023-04-07T11:33:01;22.18;40.76
41142;SHT31;63666;52.284;20.890;2023-04-07T11:35:37;22.14;40.89
41142;SHT31;63666;52.284;20.890;2023-04-07T11:38:18;22.14;40.82
41142;SHT31;63666;52.284;20.890;2023-04-07T11:40:55;22.13;40.96
41142;SHT31;63666;52.284;20.890;2023-04-07T11:43:41;22.09;41.11
41142;SHT31;63666;52.284;20.890;2023-04-07T11:46:17;22.03;41.22
41142;SHT31;63666;52.284;20.890;2023-04-07T11:48:51;21.99;41.22
41142;SHT31;63666;52.284;20.890;2023-04-07T11:51:39;21.95;41.31
41142;SHT31;63666;52.284;20.890;2023-04-07T11:54:16;21.93;41.07
41142;SHT31;63666;52.284;20.890;2023-04-07T11:56:50;21.92;41.11
41142;SHT31;63666;52.284;20.890;2023-04-07T11:59:25;21.92;41.31
41142;SHT31;63666;52.284;20.890;2023-04-07T12:01:59;21.90;41.27
41142;SHT31;63666;52.284;20.890;2023-04-07T12:04:38;21.90;41.18
41142;SHT31;63666;52.284;20.890;2023-04-07T12:07:28;21.90;41.39
41142;SHT31;63666;52.284;20.890;2023-04-07T12:12:53;21.86;41.36
41142;SHT31;63666;52.284;20.890;2023-04-07T12:15:31;21.84;41.40
41142;SHT31;63666;52.284;20.890;2023-04-07T12:18:06;21.83;41.49
41142;SHT31;63666;52.284;20.890;2023-04-07T12:20:45;21.84;41.61
41142;SHT31;63666;52.284;20.890;2023-04-07T12:23:20;21.84;41.42
41142;SHT31;63666;52.284;20.890;2023-04-07T12:25:56;21.86;41.27
41142;SHT31;63666;52.284;20.890;2023-04-07T12:28:31;21.88;41.16
41142;SHT31;63666;52.284;20.890;2023-04-07T12:31:08;21.92;41.42
41142;SHT31;63666;52.284;20.890;2023-04-07T12:33:44;21.89;41.67
41142;SHT31;63666;52.284;20.890;2023-04-07T12:36:19;21.90;41.66
41142;SHT31;63666;52.284;20.890;2023-04-07T12:38:53;21.91;41.37
41142;SHT31;63666;52.284;20.890;2023-04-07T12:41:27;21.94;41.24
41142;SHT31;63666;52.284;20.890;2023-04-07T12:44:02;21.95;41.26
41142;SHT31;63666;52.284;20.890;2023-04-07T12:46:36;21.93;41.57
41142;SHT31;63666;52.284;20.890;2023-04-07T12:49:11;21.93;41.54
41142;SHT31;63666;52.284;20.890;2023-04-07T12:51:44;21.96;41.55
41142;SHT31;63666;52.284;20.890;2023-04-07T12:54:19;22.02;41.56
41142;SHT31;63666;52.284;20.890;2023-04-07T12:56:53;22.05;41.84
41142;SHT31;63666;52.284;20.890;2023-04-07T12:59:26;22.01;42.07
41142;SHT31;63666;52.284;20.890;2023-04-07T13:02:00;22.03;42.06
41142;SHT31;63666;52.284;20.890;2023-04-07T13:04:35;21.97;42.14
41142;SHT31;63666;52.284;20.890;2023-04-07T13:07:15;21.90;42.23
41142;SHT31;63666;52.284;20.890;2023-04-07T13:09:50;21.82;42.57
41142;SHT31;63666;52.284;20.890;2023-04-07T13:12:23;21.79;42.60
41142;SHT31;63666;52.284;20.890;2023-04-07T13:14:58;21.77;42.86
41142;SHT31;63666;52.284;20.890;2023-04-07T13:17:33;21.73;43.07
41142;SHT31;63666;52.284;20.890;2023-04-07T13:20:07;21.72;42.77
41142;SHT31;63666;52.284;20.890;2023-04-07T13:22:41;21.70;42.72
41142;SHT31;63666;52.284;20.890;2023-04-07T13:25:23;21.70;42.73
41142;SHT31;63666;52.284;20.890;2023-04-07T13:27:57;21.69;42.90
41142;SHT31;63666;52.284;20.890;2023-04-07T13:30:33;21.70;42.80
41142;SHT31;63666;52.284;20.890;2023-04-07T13:33:09;21.76;42.57
41142;SHT31;63666;52.284;20.890;2023-04-07T13:35:43;21.74;42.49
41142;SHT31;63666;52.284;20.890;2023-04-07T13:38:17;21.75;42.45
41142;SHT31;63666;52.284;20.890;2023-04-07T13:40:51;21.73;42.57
41142;SHT31;63666;52.284;20.890;2023-04-07T13:43:24;21.72;42.84
41142;SHT31;63666;52.284;20.890;2023-04-07T13:45:58;21.72;42.89
41142;SHT31;63666;52.284;20.890;2023-04-07T13:48:37;21.73;42.74
41142;SHT31;63666;52.284;20.890;2023-04-07T13:51:11;21.73;42.70
41142;SHT31;63666;52.284;20.890;2023-04-07T13:53:45;21.69;42.60
41142;SHT31;63666;52.284;20.890;2023-04-07T13:56:19;21.65;42.57
41142;SHT31;63666;52.284;20.890;2023-04-07T13:58:53;21.67;42.52
41142;SHT31;63666;52.284;20.890;2023-04-07T14:01:27;21.72;42.55
41142;SHT31;63666;52.284;20.890;2023-04-07T14:04:02;21.72;42.71
41142;SHT31;63666;52.284;20.890;2023-04-07T14:06:36;21.72;42.48
41142;SHT31;63666;52.284;20.890;2023-04-07T14:09:12;21.72;42.38
41142;SHT31;63666;52.284;20.890;2023-04-07T14:11:45;21.74;42.38
41142;SHT31;63666;52.284;20.890;2023-04-07T14:14:20;21.77;42.27
41142;SHT31;63666;52.284;20.890;2023-04-07T14:16:55;21.81;42.08
41142;SHT31;63666;52.284;20.890;2023-04-07T14:19:29;21.83;42.01
41142;SHT31;63666;52.284;20.890;2023-04-07T14:22:03;21.84;42.02
41142;SHT31;63666;52.284;20.890;2023-04-07T14:24:37;21.81;42.23
41142;SHT31;63666;52.284;20.890;2023-04-07T14:27:12;21.80;42.30
41142;SHT31;63666;52.284;20.890;2023-04-07T14:29:49;21.80;42.28
41142;SHT31;63666;52.284;20.890;2023-04-07T14:32:25;21.75;42.56
41142;SHT31;63666;52.284;20.890;2023-04-07T14:35:01;21.76;42.69
41142;SHT31;63666;52.284;20.890;2023-04-07T14:37:36;21.83;42.51
41142;SHT31;63666;52.284;20.890;2023-04-07T14:40:11;21.90;42.75
41142;SHT31;63666;52.284;20.890;2023-04-07T14:42:44;21.89;42.74
41142;SHT31;63666;52.284;20.890;2023-04-07T14:45:18;21.86;42.83
41142;SHT31;63666;52.284;20.890;2023-04-07T14:47:53;21.86;43.10
41142;SHT31;63666;52.284;20.890;2023-04-07T14:50:27;21.81;43.12
41142;SHT31;63666;52.284;20.890;2023-04-07T14:53:02;21.74;43.31
41142;SHT31;63666;52.284;20.890;2023-04-07T14:55:36;21.69;43.39
41142;SHT31;63666;52.284;20.890;2023-04-07T14:58:10;21.65;43.54
41142;SHT31;63666;52.284;20.890;2023-04-07T15:00:44;21.66;43.60
41142;SHT31;63666;52.284;20.890;2023-04-07T15:03:17;21.66;43.72
41142;SHT31;63666;52.284;20.890;2023-04-07T15:05:51;21.66;43.55
41142;SHT31;63666;52.284;20.890;2023-04-07T15:08:24;21.65;43.82
41142;SHT31;63666;52.284;20.890;2023-04-07T15:10:58;21.63;44.01
41142;SHT31;63666;52.284;20.890;2023-04-07T15:13:32;21.64;44.74
41142;SHT31;63666;52.284;20.890;2023-04-07T15:16:08;21.71;44.09
41142;SHT31;63666;52.284;20.890;2023-04-07T15:18:45;21.75;44.21
41142;SHT31;63666;52.284;20.890;2023-04-07T15:21:20;21.74;44.09
41142;SHT31;63666;52.284;20.890;2023-04-07T15:23:54;21.68;44.50
41142;SHT31;63666;52.284;20.890;2023-04-07T15:26:32;21.64;44.71
41142;SHT31;63666;52.284;20.890;2023-04-07T15:29:08;21.63;44.81
41142;SHT31;63666;52.284;20.890;2023-04-07T15:31:41;21.60;44.97
41142;SHT31;63666;52.284;20.890;2023-04-07T15:34:17;21.57;45.01
41142;SHT31;63666;52.284;20.890;2023-04-07T15:36:51;21.54;44.91
41142;SHT31;63666;52.284;20.890;2023-04-07T15:39:25;21.53;44.81
41142;SHT31;63666;52.284;20.890;2023-04-07T15:41:59;21.52;44.86
41142;SHT31;63666;52.284;20.890;2023-04-07T15:44:36;21.49;44.69
41142;SHT31;63666;52.284;20.890;2023-04-07T15:47:09;21.47;44.71
41142;SHT31;63666;52.284;20.890;2023-04-07T15:49:43;21.46;44.90
41142;SHT31;63666;52.284;20.890;2023-04-07T15:52:17;21.45;44.93
41142;SHT31;63666;52.284;20.890;2023-04-07T15:54:50;21.45;44.94
41142;SHT31;63666;52.284;20.890;2023-04-07T15:57:26;21.44;44.85
41142;SHT31;63666;52.284;20.890;2023-04-07T16:00:01;21.43;44.91
41142;SHT31;63666;52.284;20.890;2023-04-07T16:02:36;21.41;44.75
41142;SHT31;63666;52.284;20.890;2023-04-07T16:05:10;21.41;44.81
41142;SHT31;63666;52.284;20.890;2023-04-07T16:07:44;21.40;44.90
41142;SHT31;63666;52.284;20.890;2023-04-07T16:10:19;21.39;44.83
41142;SHT31;63666;52.284;20.890;2023-04-07T16:12:53;21.38;44.91
41142;SHT31;63666;52.284;20.890;2023-04-07T16:15:26;21.37;44.79
41142;SHT31;63666;52.284;20.890;2023-04-07T16:18:09;21.36;44.74
41142;SHT31;63666;52.284;20.890;2023-04-07T16:20:43;21.34;44.91